Time;durP1;ratioP1;P1;durP2;ratioP2;P2;SDS_P1;SDS_P2;PMS_P1;PMS_P2;Temp;Humidity;BMP_temperature;BMP_pressure;BME280_temperature;BME280_humidity;BME280_pressure;Samples;Min_cycle;Max_cycle;Signal;HPM_P1;HPM_P2
2023/08/18 00:00:42;;;;;;;7.10;5.30;;;;;;;19.62;100.00;100613.75;105202;1256;60133;-66
2023/08/18 00:03:10;;;;;;;6.40;4.40;;;;;;;19.58;100.00;100615.55;105573;1261;60516;-67
2023/08/18 00:05:38;;;;;;;6.70;4.10;;;;;;;19.56;100.00;100619.46;105132;1261;73569;-62
2023/08/18 00:08:06;;;;;;;7.30;4.60;;;;;;;19.52;100.00;100619.70;105416;1257;65734;-63
2023/08/18 00:10:33;;;;;;;6.20;4.70;;;;;;;19.46;100.00;100616.31;105354;1256;73174;-63
2023/08/18 00:13:01;;;;;;;8.90;4.70;;;;;;;19.42;100.00;100616.96;105294;1262;59736;-63
2023/08/18 00:15:29;;;;;;;8.50;4.60;;;;;;;19.41;100.00;100620.33;105456;1257;60112;-67
2023/08/18 00:17:57;;;;;;;6.30;4.60;;;;;;;19.38;100.00;100618.73;105328;1256;72535;-63
2023/08/18 00:20:24;;;;;;;6.90;4.00;;;;;;;19.35;100.00;100618.63;105341;1261;67064;-63
2023/08/18 00:22:52;;;;;;;6.60;4.40;;;;;;;19.34;100.00;100618.44;105386;1259;72818;-63
2023/08/18 00:25:20;;;;;;;6.10;4.90;;;;;;;19.35;100.00;100618.86;105674;1261;60589;-65
2023/08/18 00:27:48;;;;;;;6.30;5.00;;;;;;;19.34;100.00;100617.06;105466;1256;59684;-64
2023/08/18 00:30:15;;;;;;;6.40;4.80;;;;;;;19.34;100.00;100618.38;105239;1257;73534;-63
2023/08/18 00:32:43;;;;;;;6.60;5.00;;;;;;;19.32;100.00;100615.68;105443;1256;67127;-63
2023/08/18 00:35:11;;;;;;;5.70;4.30;;;;;;;19.29;100.00;100615.41;105747;1259;72740;-67
2023/08/18 00:37:42;;;;;;;6.90;5.30;;;;;;;19.28;100.00;100622.80;105322;1262;62414;-63
2023/08/18 00:40:10;;;;;;;7.80;5.10;;;;;;;19.25;100.00;100621.16;105521;1257;60053;-63
2023/08/18 00:42:38;;;;;;;8.50;5.50;;;;;;;19.24;100.00;100621.31;105534;1257;73506;-63
2023/08/18 00:45:07;;;;;;;6.90;5.10;;;;;;;19.22;100.00;100619.23;105585;1256;65749;-66
2023/08/18 00:47:34;;;;;;;7.50;5.40;;;;;;;19.19;100.00;100617.85;105157;1267;73549;-64
2023/08/18 00:50:02;;;;;;;8.70;5.00;;;;;;;19.19;100.00;100617.38;105237;1257;61726;-63
2023/08/18 00:52:30;;;;;;;7.00;5.00;;;;;;;19.21;100.00;100620.31;105477;1260;59800;-62
2023/08/18 00:54:58;;;;;;;8.00;5.80;;;;;;;19.23;100.00;100623.41;105499;1259;73080;-63
2023/08/18 00:57:26;;;;;;;6.70;4.70;;;;;;;19.23;100.00;100620.84;105433;1260;67692;-63
2023/08/18 00:59:56;;;;;;;8.10;5.60;;;;;;;19.23;100.00;100621.52;105315;1262;71450;-62
2023/08/18 01:02:24;;;;;;;6.60;4.90;;;;;;;19.18;100.00;100620.04;105354;1262;60142;-63
2023/08/18 01:04:52;;;;;;;6.30;4.90;;;;;;;19.12;100.00;100620.71;105502;1256;59710;-67
2023/08/18 01:07:19;;;;;;;9.70;6.60;;;;;;;19.06;100.00;100621.10;105179;1257;72381;-62
2023/08/18 01:09:47;;;;;;;9.60;6.90;;;;;;;19.00;100.00;100624.49;105407;1257;66102;-64
2023/08/18 01:12:38;;;;;;;11.30;6.70;;;;;;;18.94;100.00;100622.25;105382;1262;73191;-64
2023/08/18 01:15:28;;;;;;;10.30;6.70;;;;;;;18.88;100.00;100623.54;105222;1262;59724;-63
2023/08/18 01:18:03;;;;;;;15.80;6.30;;;;;;;18.84;100.00;100630.42;105374;1257;59611;-64
2023/08/18 01:20:31;;;;;;;7.00;5.30;;;;;;;18.81;100.00;100627.17;105407;1260;71848;-66
2023/08/18 01:22:59;;;;;;;7.10;5.60;;;;;;;18.82;100.00;100627.77;105044;1256;67037;-63
2023/08/18 01:25:27;;;;;;;10.50;5.10;;;;;;;18.81;100.00;100630.59;105343;1264;71544;-63
2023/08/18 01:27:59;;;;;;;8.20;4.80;;;;;;;18.82;100.00;100635.90;105317;1258;59650;-63
2023/08/18 01:30:41;;;;;;;8.00;5.60;;;;;;;18.82;100.00;100635.53;105312;1256;60412;-65
2023/08/18 01:33:27;;;;;;;9.70;5.80;;;;;;;18.82;100.00;100641.98;105435;1260;73109;-63
2023/08/18 01:35:56;;;;;;;5.90;4.70;;;;;;;18.81;100.00;100637.95;105518;1262;67046;-66
2023/08/18 01:38:24;;;;;;;9.10;5.00;;;;;;;18.79;100.00;100635.63;105164;1264;73264;-63
2023/08/18 01:40:52;;;;;;;8.30;5.30;;;;;;;18.77;100.00;100638.39;105312;1261;60653;-63
2023/08/18 01:43:19;;;;;;;9.40;5.90;;;;;;;18.78;100.00;100638.98;105455;1260;61259;-63
2023/08/18 01:45:48;;;;;;;9.50;6.20;;;;;;;18.75;100.00;100642.92;105605;1257;73896;-65
2023/08/18 01:48:15;;;;;;;10.40;6.10;;;;;;;18.73;100.00;100645.52;105128;1260;66901;-63
2023/08/18 01:50:43;;;;;;;8.10;5.60;;;;;;;18.70;100.00;100643.86;105463;1262;72507;-64
2023/08/18 01:53:11;;;;;;;8.00;5.40;;;;;;;18.68;100.00;100642.79;105571;1260;60548;-63
2023/08/18 01:55:39;;;;;;;7.60;5.90;;;;;;;18.65;100.00;100640.56;105718;1257;60446;-65
2023/08/18 01:58:07;;;;;;;8.20;6.20;;;;;;;18.63;100.00;100644.45;105467;1257;73890;-61
2023/08/18 02:00:34;;;;;;;9.60;5.90;;;;;;;18.60;100.00;100652.58;105455;1262;67060;-63
2023/08/18 02:03:02;;;;;;;8.10;6.40;;;;;;;18.58;100.00;100651.67;105517;1257;72723;-63
2023/08/18 02:05:31;;;;;;;10.40;6.30;;;;;;;18.56;100.00;100653.05;105814;1268;61681;-65
2023/08/18 02:07:59;;;;;;;8.90;6.30;;;;;;;18.54;100.00;100655.80;105726;1259;60503;-63
2023/08/18 02:10:27;;;;;;;8.70;6.60;;;;;;;18.53;100.00;100653.95;105431;1254;73831;-62
2023/08/18 02:12:56;;;;;;;9.10;5.80;;;;;;;18.52;100.00;100652.33;105465;1260;65949;-62
2023/08/18 02:15:25;;;;;;;10.30;6.60;;;;;;;18.51;100.00;100658.15;105549;1256;71444;-61
2023/08/18 02:17:52;;;;;;;27.40;15.60;;;;;;;18.50;100.00;100662.56;105295;1260;61802;-66
2023/08/18 02:20:21;;;;;;;33.50;19.70;;;;;;;18.49;100.00;100661.64;105523;1259;60361;-62
2023/08/18 02:22:49;;;;;;;36.80;21.70;;;;;;;18.49;100.00;100662.33;105699;1258;72678;-62
2023/08/18 02:25:16;;;;;;;34.90;21.10;;;;;;;18.49;100.00;100661.60;105527;1259;65639;-62
2023/08/18 02:27:44;;;;;;;29.20;18.90;;;;;;;18.49;100.00;100658.75;105670;1267;72709;-64
2023/08/18 02:30:12;;;;;;;31.90;17.20;;;;;;;18.49;100.00;100660.95;105652;1259;60577;-62
2023/08/18 02:32:40;;;;;;;23.10;14.80;;;;;;;18.49;100.00;100661.31;105185;1257;60426;-62
2023/08/18 02:35:08;;;;;;;21.00;13.50;;;;;;;18.48;100.00;100662.61;105433;1259;74019;-62
2023/08/18 02:37:36;;;;;;;17.20;11.60;;;;;;;18.48;100.00;100666.59;105679;1259;65733;-63
2023/08/18 02:40:06;;;;;;;17.40;10.40;;;;;;;18.50;100.00;100672.96;105598;1259;73227;-65
2023/08/18 02:42:33;;;;;;;14.40;10.40;;;;;;;18.54;100.00;100672.89;105411;1255;60422;-61
2023/08/18 02:45:02;;;;;;;14.80;9.30;;;;;;;18.57;100.00;100672.40;105513;1259;60470;-62
2023/08/18 02:47:30;;;;;;;15.40;8.80;;;;;;;18.61;100.00;100672.45;105597;1259;73857;-62
2023/08/18 02:49:58;;;;;;;14.40;9.10;;;;;;;18.66;100.00;100676.65;105720;1259;65667;-65
2023/08/18 02:52:26;;;;;;;11.60;7.30;;;;;;;18.74;100.00;100676.98;105256;1267;72704;-61
2023/08/18 02:54:54;;;;;;;12.90;8.50;;;;;;;18.80;100.00;100675.86;105482;1255;60531;-61
2023/08/18 02:57:23;;;;;;;13.10;8.60;;;;;;;18.86;100.00;100674.42;105133;1261;61142;-64
2023/08/18 02:59:51;;;;;;;11.00;7.70;;;;;;;18.94;100.00;100672.07;105671;1259;72685;-62
2023/08/18 03:02:18;;;;;;;11.80;7.40;;;;;;;19.04;100.00;100675.85;105779;1260;66911;-65
2023/08/18 03:04:46;;;;;;;17.00;13.10;;;;;;;19.19;100.00;100679.73;105444;1259;72698;-61
2023/08/18 03:07:14;;;;;;;10.50;9.20;;;;;;;19.38;100.00;100681.69;105376;1258;60694;-63
2023/08/18 03:09:42;;;;;;;9.10;7.30;;;;;;;19.51;100.00;100681.02;105539;1260;60606;-62
2023/08/18 03:12:10;;;;;;;10.10;8.10;;;;;;;19.59;100.00;100676.96;105383;1255;73761;-62
2023/08/18 03:14:37;;;;;;;10.60;7.30;;;;;;;19.65;100.00;100679.36;105469;1254;65634;-63
2023/08/18 03:17:06;;;;;;;11.60;8.40;;;;;;;19.73;100.00;100677.77;105698;1260;73396;-66
2023/08/18 03:19:34;;;;;;;9.10;6.20;;;;;;;19.80;100.00;100681.67;105194;1259;62121;-62
2023/08/18 03:22:01;;;;;;;9.70;7.10;;;;;;;19.85;100.00;100683.52;105747;1259;60635;-63
2023/08/18 03:24:29;;;;;;;8.70;7.20;;;;;;;19.93;100.00;100680.45;105468;1259;73904;-62
2023/08/18 03:26:57;;;;;;;8.50;6.90;;;;;;;20.08;100.00;100682.39;105453;1260;66960;-63
2023/08/18 03:29:25;;;;;;;7.60;6.40;;;;;;;20.24;100.00;100676.96;105236;1270;73676;-65
2023/08/18 03:31:53;;;;;;;7.80;6.30;;;;;;;20.48;100.00;100675.88;105374;1262;61731;-62
2023/08/18 03:34:21;;;;;;;8.30;6.20;;;;;;;20.89;100.00;100671.70;105247;1255;59216;-63
2023/08/18 03:36:50;;;;;;;10.70;6.80;;;;;;;21.55;100.00;100668.65;105749;1259;72678;-65
2023/08/18 03:39:19;;;;;;;9.00;6.80;;;;;;;22.55;100.00;100667.80;105484;1259;66946;-67
2023/08/18 03:41:47;;;;;;;9.60;6.70;;;;;;;23.75;100.00;100654.92;105615;1259;72739;-63
2023/08/18 03:44:15;;;;;;;8.20;6.80;;;;;;;24.94;100.00;100644.98;105637;1259;60483;-66
2023/08/18 03:46:42;;;;;;;10.60;6.10;;;;;;;26.02;100.00;100622.14;106006;1260;60450;-63
2023/08/18 03:49:10;;;;;;;7.80;6.20;;;;;;;26.94;100.00;100604.95;105301;1263;73889;-65
2023/08/18 03:51:38;;;;;;;10.40;6.40;;;;;;;27.72;100.00;100592.58;105544;1269;65885;-63
2023/08/18 03:54:07;;;;;;;7.40;5.80;;;;;;;28.46;100.00;100593.02;105514;1257;72726;-64
2023/08/18 03:56:35;;;;;;;8.00;6.50;;;;;;;29.19;100.00;100590.73;105173;1270;60438;-63
2023/08/18 03:59:03;;;;;;;9.00;6.20;;;;;;;29.87;100.00;100585.27;105685;1270;59588;-63
2023/08/18 04:01:31;;;;;;;7.70;6.30;;;;;;;30.36;100.00;100587.30;105573;1258;74300;-63
2023/08/18 04:03:59;;;;;;;6.60;5.80;;;;;;;30.86;100.00;100583.45;105280;1259;65870;-64
2023/08/18 04:06:27;;;;;;;9.40;6.00;;;;;;;31.44;100.00;100582.81;105424;1259;72719;-63
2023/08/18 04:09:06;;;;;;;7.20;6.00;;;;;;;32.16;100.00;100584.33;105244;1257;60560;-65
2023/08/18 04:11:35;;;;;;;8.30;5.10;;;;;;;32.91;100.00;100585.44;105485;1259;60306;-62
2023/08/18 04:14:03;;;;;;;7.00;5.40;;;;;;;33.31;95.37;100586.30;105545;1259;64894;-62
2023/08/18 04:16:31;;;;;;;8.00;5.10;;;;;;;33.64;90.82;100591.13;105537;1261;65659;-63
2023/08/18 04:19:00;;;;;;;9.20;5.10;;;;;;;34.06;81.70;100587.06;105615;1260;71527;-67
2023/08/18 04:21:30;;;;;;;6.60;5.30;;;;;;;34.24;78.71;100587.16;105446;1255;60509;-63
2023/08/18 04:23:57;;;;;;;8.00;5.10;;;;;;;34.67;77.95;100585.48;105649;1259;60997;-63
2023/08/18 04:26:27;;;;;;;6.50;4.60;;;;;;;35.22;68.68;100589.04;105658;1259;65115;-64
2023/08/18 04:28:55;;;;;;;10.40;5.60;;;;;;;35.36;62.04;100593.71;105889;1254;60942;-67
2023/08/18 04:31:23;;;;;;;6.80;5.60;;;;;;;35.10;57.50;100594.40;105646;1260;62892;-62
2023/08/18 04:33:54;;;;;;;8.30;5.40;;;;;;;34.65;60.36;100598.21;105559;1260;60454;-62
2023/08/18 04:36:22;;;;;;;7.70;5.40;;;;;;;34.31;61.95;100593.59;105570;1253;60349;-63
2023/08/18 04:38:50;;;;;;;7.30;6.10;;;;;;;34.14;66.31;100596.57;105727;1259;74351;-68
2023/08/18 04:41:25;;;;;;;6.40;4.90;;;;;;;34.43;67.60;100595.06;105718;1255;60454;-63
2023/08/18 04:43:53;;;;;;;6.50;5.10;;;;;;;34.88;61.64;100593.08;105685;1254;62539;-65
2023/08/18 04:46:24;;;;;;;6.50;5.40;;;;;;;34.98;60.48;100595.58;105473;1260;60534;-63
2023/08/18 04:48:55;;;;;;;8.70;5.20;;;;;;;34.97;60.22;100593.05;105777;1259;60385;-64
2023/08/18 04:51:23;;;;;;;11.30;5.50;;;;;;;34.90;59.17;100595.08;105595;1257;63880;-63
2023/08/18 04:53:51;;;;;;;6.80;5.40;;;;;;;34.79;60.28;100593.48;105623;1253;66940;-62
2023/08/18 04:56:19;;;;;;;7.40;5.10;;;;;;;34.72;61.31;100593.17;105392;1255;63820;-62
2023/08/18 04:58:47;;;;;;;8.00;5.20;;;;;;;34.77;63.12;100589.38;105889;1260;60382;-66
2023/08/18 05:01:15;;;;;;;5.80;4.40;;;;;;;34.97;64.71;100593.43;105683;1257;60336;-65
2023/08/18 05:03:43;;;;;;;6.50;4.70;;;;;;;35.24;60.48;100592.12;105646;1259;65018;-68
2023/08/18 05:06:13;;;;;;;5.50;4.90;;;;;;;35.37;59.95;100590.58;105779;1261;60614;-65
2023/08/18 05:08:41;;;;;;;10.10;5.30;;;;;;;35.88;58.66;100589.54;106100;1257;63793;-66
2023/08/18 05:11:10;;;;;;;5.70;4.60;;;;;;;36.59;53.37;100587.77;105679;1258;60809;-63
2023/08/18 05:13:39;;;;;;;6.30;5.20;;;;;;;36.97;47.24;100585.30;109279;1254;58122;-63
2023/08/18 05:16:07;;;;;;;5.60;4.70;;;;;;;36.73;46.35;100588.98;109290;1253;64735;-63
2023/08/18 05:18:35;;;;;;;5.30;4.70;;;;;;;36.48;49.01;100585.23;109134;1254;58330;-65
2023/08/18 05:21:03;;;;;;;6.40;5.00;;;;;;;36.82;51.23;100586.33;109254;1253;63948;-67
2023/08/18 05:23:31;;;;;;;9.80;5.80;;;;;;;37.39;46.48;100587.38;109276;1253;59059;-63
2023/08/18 05:25:59;;;;;;;7.80;5.30;;;;;;;37.47;44.56;100592.45;109275;1253;58230;-63
2023/08/18 05:28:32;;;;;;;7.10;5.60;;;;;;;37.38;44.75;100595.73;109166;1254;65360;-64
2023/08/18 05:31:01;;;;;;;7.60;5.50;;;;;;;37.43;44.60;100594.31;109267;1254;58823;-64
2023/08/18 05:33:28;;;;;;;6.40;5.80;;;;;;;37.47;43.86;100595.55;109258;1253;62575;-63
2023/08/18 05:35:59;;;;;;;9.80;5.80;;;;;;;37.34;44.23;100591.77;109165;1253;58115;-62
2023/08/18 05:38:27;;;;;;;6.60;5.00;;;;;;;37.29;44.89;100599.28;109161;1254;58601;-65
2023/08/18 05:41:06;;;;;;;7.50;5.00;;;;;;;37.33;45.15;100600.90;109145;1254;65068;-63
2023/08/18 05:43:38;;;;;;;8.00;5.60;;;;;;;37.46;46.13;100600.97;109259;1253;58317;-62
2023/08/18 05:46:06;;;;;;;6.20;5.50;;;;;;;37.91;45.51;100598.61;109177;1253;62634;-63
2023/08/18 05:48:34;;;;;;;9.90;5.50;;;;;;;38.40;43.47;100600.13;109107;1253;58751;-65
2023/08/18 05:51:02;;;;;;;7.40;5.10;;;;;;;38.41;40.84;100598.75;109296;1254;58065;-63
2023/08/18 05:53:32;;;;;;;8.10;5.60;;;;;;;38.20;41.91;100597.27;109273;1252;72990;-63
2023/08/18 05:56:00;;;;;;;6.30;5.10;;;;;;;38.06;41.74;100597.83;109177;1254;58249;-64
2023/08/18 05:58:28;;;;;;;9.00;5.20;;;;;;;37.78;42.81;100594.23;109287;1254;62510;-66
2023/08/18 06:00:55;;;;;;;5.40;4.90;;;;;;;37.72;44.60;100595.28;109089;1254;58585;-65
2023/08/18 06:03:23;;;;;;;6.40;5.40;;;;;;;37.97;44.21;100588.33;109351;1253;58074;-64
2023/08/18 06:05:50;;;;;;;6.60;5.10;;;;;;;38.23;43.26;100593.46;109338;1253;63717;-63
2023/08/18 06:08:18;;;;;;;6.20;5.10;;;;;;;38.44;42.50;100593.35;109303;1254;58308;-66
2023/08/18 06:10:46;;;;;;;5.80;5.20;;;;;;;38.65;41.33;100590.82;109336;1254;63839;-65
2023/08/18 06:13:14;;;;;;;6.20;4.90;;;;;;;38.91;41.45;100591.30;109348;1253;58220;-64
2023/08/18 06:15:42;;;;;;;16.70;6.10;;;;;;;39.04;40.28;100589.55;109242;1253;58859;-63
2023/08/18 06:18:10;;;;;;;7.10;5.20;;;;;;;38.87;39.38;100588.38;109317;1253;65027;-64
2023/08/18 06:20:38;;;;;;;5.30;4.80;;;;;;;38.78;41.11;100590.64;109314;1253;58161;-65
2023/08/18 06:23:05;;;;;;;5.80;5.00;;;;;;;38.77;40.06;100592.42;109314;1253;62523;-65
2023/08/18 06:25:33;;;;;;;6.80;5.00;;;;;;;38.42;40.76;100593.48;109333;1253;58498;-64
2023/08/18 06:28:00;;;;;;;5.50;4.80;;;;;;;38.16;42.08;100593.65;109207;1253;58680;-65
2023/08/18 06:30:28;;;;;;;6.40;4.90;;;;;;;37.91;43.99;100593.33;109377;1253;65526;-66
2023/08/18 06:32:56;;;;;;;5.30;4.70;;;;;;;37.76;44.28;100595.45;109165;1253;58953;-67
2023/08/18 06:35:23;;;;;;;7.50;5.40;;;;;;;37.51;43.71;100595.80;109240;1254;64022;-63
2023/08/18 06:37:51;;;;;;;6.30;5.60;;;;;;;37.17;43.79;100592.86;109221;1253;58173;-63
2023/08/18 06:40:18;;;;;;;5.40;4.90;;;;;;;36.85;46.29;100588.58;109253;1253;58653;-64
2023/08/18 06:42:46;;;;;;;6.70;4.80;;;;;;;36.74;48.09;100586.20;109168;1252;64952;-66
2023/08/18 06:45:14;;;;;;;6.50;4.60;;;;;;;36.73;48.73;100586.02;109316;1252;58726;-62
2023/08/18 06:47:41;;;;;;;5.50;4.70;;;;;;;36.77;51.20;100583.02;109360;1253;63811;-63
2023/08/18 06:50:09;;;;;;;6.70;4.60;;;;;;;37.14;50.38;100582.02;109308;1252;58196;-63
2023/08/18 06:52:37;;;;;;;8.00;5.10;;;;;;;37.40;47.77;100583.27;109311;1252;58553;-63
2023/08/18 06:55:13;;;;;;;5.30;4.50;;;;;;;37.26;45.82;100581.73;109306;1253;65932;-65
2023/08/18 06:57:44;;;;;;;8.30;4.50;;;;;;;36.90;46.49;100575.48;109351;1252;58465;-64
2023/08/18 07:00:15;;;;;;;5.70;4.90;;;;;;;36.69;51.62;100577.00;109195;1253;63857;-63
2023/08/18 07:02:46;;;;;;;4.80;3.90;;;;;;;36.83;51.86;100577.71;109136;1253;58671;-65
2023/08/18 07:05:14;;;;;;;9.10;4.60;;;;;;;36.85;49.77;100569.14;109301;1253;58707;-66
2023/08/18 07:07:42;;;;;;;6.10;4.50;;;;;;;36.67;50.13;100572.37;109333;1252;65027;-62
2023/08/18 07:10:09;;;;;;;7.80;4.90;;;;;;;36.42;50.51;100570.59;109347;1253;58239;-63
2023/08/18 07:12:37;;;;;;;7.20;4.50;;;;;;;36.36;52.67;100571.92;109159;1253;62519;-64
2023/08/18 07:15:05;;;;;;;5.40;4.40;;;;;;;36.44;53.72;100570.23;109290;1252;58154;-65
2023/08/18 07:17:32;;;;;;;6.00;4.20;;;;;;;36.50;55.19;100570.80;109185;1253;58503;-63
2023/08/18 07:20:00;;;;;;;7.00;4.50;;;;;;;36.77;53.62;100567.79;109355;1253;65016;-64
2023/08/18 07:22:28;;;;;;;4.80;4.30;;;;;;;36.89;50.36;100565.59;109160;1254;58689;-64
2023/08/18 07:24:55;;;;;;;6.10;4.20;;;;;;;36.78;50.18;100565.88;109202;1253;63785;-63
2023/08/18 07:27:23;;;;;;;7.00;4.40;;;;;;;36.73;52.92;100566.33;109299;1252;58742;-67
2023/08/18 07:29:51;;;;;;;6.30;4.40;;;;;;;36.99;51.98;100567.61;109305;1253;60711;-63
2023/08/18 07:32:18;;;;;;;9.70;4.50;;;;;;;37.27;48.45;100569.94;109314;1253;65013;-66
2023/08/18 07:34:46;;;;;;;5.20;4.10;;;;;;;37.32;47.49;100568.73;109295;1252;58611;-63
2023/08/18 07:37:14;;;;;;;5.70;4.60;;;;;;;37.29;47.40;100562.70;109318;1253;63983;-63
2023/08/18 07:39:43;;;;;;;6.40;3.90;;;;;;;37.19;48.34;100561.87;109153;1252;58187;-63
2023/08/18 07:42:11;;;;;;;7.90;4.40;;;;;;;37.11;50.44;100562.39;109216;1253;58109;-67
2023/08/18 07:44:38;;;;;;;5.30;4.80;;;;;;;37.20;49.23;100556.75;109158;1253;65076;-67
2023/08/18 07:47:06;;;;;;;5.50;4.10;;;;;;;37.33;48.98;100556.26;109288;1253;58340;-64
2023/08/18 07:49:34;;;;;;;4.50;4.00;;;;;;;37.50;49.07;100554.35;109166;1254;63859;-66
2023/08/18 07:52:01;;;;;;;6.80;4.10;;;;;;;37.66;46.91;100555.54;109209;1253;58450;-67
2023/08/18 07:54:29;;;;;;;6.80;4.40;;;;;;;37.83;46.77;100554.61;109292;1253;58136;-67
2023/08/18 07:56:57;;;;;;;6.90;4.50;;;;;;;38.06;45.35;100556.73;109334;1253;63684;-65
2023/08/18 07:59:25;;;;;;;6.00;4.00;;;;;;;38.32;42.96;100549.20;109290;1253;58339;-65
2023/08/18 08:01:52;;;;;;;6.50;3.90;;;;;;;38.46;41.61;100543.60;109139;1253;62461;-65
2023/08/18 08:04:20;;;;;;;5.00;4.30;;;;;;;38.42;42.36;100542.21;109270;1253;58167;-67
2023/08/18 08:06:49;;;;;;;6.50;4.40;;;;;;;38.44;42.87;100541.77;109268;1253;58218;-65
2023/08/18 08:09:17;;;;;;;5.60;3.90;;;;;;;38.50;42.41;100540.08;109310;1253;65108;-64
2023/08/18 08:11:45;;;;;;;7.50;4.20;;;;;;;38.57;42.33;100533.88;109154;1253;58215;-67
2023/08/18 08:14:12;;;;;;;6.50;4.20;;;;;;;38.61;42.24;100535.82;109308;1252;62550;-64
2023/08/18 08:16:40;;;;;;;9.40;4.90;;;;;;;38.61;42.11;100538.15;109224;1252;58696;-64
2023/08/18 08:19:09;;;;;;;5.10;4.60;;;;;;;38.60;42.55;100540.71;109176;1253;58288;-66
2023/08/18 08:21:38;;;;;;;6.70;4.30;;;;;;;38.48;41.47;100537.64;109283;1253;65025;-66
2023/08/18 08:24:06;;;;;;;6.30;4.60;;;;;;;38.30;40.35;100534.30;109269;1253;59213;-66
2023/08/18 08:26:34;;;;;;;5.70;4.90;;;;;;;38.07;38.43;100535.94;109276;1252;73506;-63
2023/08/18 08:29:02;;;;;;;7.10;4.40;;;;;;;37.60;38.55;100537.60;109265;1252;58512;-65
2023/08/18 08:31:29;;;;;;;5.50;4.60;;;;;;;37.07;39.25;100539.14;109271;1253;58833;-67
2023/08/18 08:33:57;;;;;;;5.40;4.30;;;;;;;36.68;42.15;100536.85;109310;1252;64282;-63
2023/08/18 08:36:28;;;;;;;7.70;4.60;;;;;;;36.50;44.30;100532.33;109271;1252;58197;-65
2023/08/18 08:39:03;;;;;;;6.10;4.50;;;;;;;36.56;44.22;100529.29;109187;1253;63903;-62
2023/08/18 08:41:31;;;;;;;5.60;4.20;;;;;;;36.67;44.40;100530.63;109135;1252;58650;-67
2023/08/18 08:43:59;;;;;;;5.10;4.20;;;;;;;36.56;45.86;100532.06;109269;1253;58255;-62
2023/08/18 08:46:26;;;;;;;5.60;4.20;;;;;;;36.29;44.77;100526.69;109210;1252;65162;-66
2023/08/18 08:48:54;;;;;;;5.00;3.80;;;;;;;35.91;46.86;100527.00;109367;1252;58592;-67
2023/08/18 08:51:22;;;;;;;5.80;4.20;;;;;;;35.78;48.79;100524.41;109126;1253;62515;-65
2023/08/18 08:53:50;;;;;;;4.70;3.60;;;;;;;35.85;47.86;100523.73;109096;1254;58240;-64
2023/08/18 08:56:18;;;;;;;5.40;4.00;;;;;;;36.00;49.81;100526.23;109174;1253;58706;-67
2023/08/18 08:58:45;;;;;;;4.40;3.80;;;;;;;36.17;48.77;100528.46;109180;1252;64949;-63
2023/08/18 09:01:13;;;;;;;5.80;4.30;;;;;;;36.17;47.69;100528.10;109169;1252;58356;-64
2023/08/18 09:03:41;;;;;;;6.60;4.00;;;;;;;36.22;47.80;100528.14;109228;1252;72742;-69
2023/08/18 09:06:12;;;;;;;5.80;4.40;;;;;;;36.25;46.35;100526.13;109068;1253;58642;-67
2023/08/18 09:08:41;;;;;;;8.80;4.80;;;;;;;36.12;46.83;100521.52;109144;1253;58704;-63
2023/08/18 09:11:09;;;;;;;7.10;4.50;;;;;;;35.84;47.10;100532.19;109236;1252;63718;-63
2023/08/18 09:13:37;;;;;;;6.00;4.30;;;;;;;35.43;53.15;100529.86;109255;1252;58678;-65
2023/08/18 09:16:06;;;;;;;4.10;3.60;;;;;;;35.33;59.30;100528.33;109253;1252;63829;-67
2023/08/18 09:18:34;;;;;;;10.50;5.00;;;;;;;35.39;54.81;100528.34;109273;1252;58218;-65
2023/08/18 09:21:03;;;;;;;4.90;3.90;;;;;;;35.27;57.11;100527.91;109313;1253;58216;-68
2023/08/18 09:23:31;;;;;;;4.30;3.60;;;;;;;35.35;57.68;100524.60;109187;1253;64377;-64
2023/08/18 09:25:58;;;;;;;6.40;4.00;;;;;;;35.63;57.41;100522.55;109103;1252;58222;-68
2023/08/18 09:28:29;;;;;;;7.40;4.00;;;;;;;35.91;53.09;100518.16;109253;1252;62656;-66
2023/08/18 09:30:56;;;;;;;;;;;;;;;36.00;55.81;100520.15;109274;1252;58761;-68
2023/08/18 09:33:25;;;;;;;5.80;3.70;;;;;;;36.02;54.24;100519.04;109169;1253;58198;-64
2023/08/18 09:35:57;;;;;;;7.50;3.80;;;;;;;35.89;51.73;100518.13;109072;1253;65140;-68
2023/08/18 09:38:25;;;;;;;5.30;4.20;;;;;;;35.86;53.43;100517.58;109276;1253;58252;-64
2023/08/18 09:40:56;;;;;;;6.60;4.20;;;;;;;36.09;52.56;100516.34;109150;1253;62437;-66
2023/08/18 09:43:24;;;;;;;5.00;3.80;;;;;;;36.33;51.78;100521.42;109265;1252;58348;-65
2023/08/18 09:45:53;;;;;;;6.40;4.00;;;;;;;36.59;50.66;100521.45;109248;1253;58206;-68
2023/08/18 09:48:24;;;;;;;8.00;4.70;;;;;;;36.79;48.68;100515.69;109100;1252;225791;-65
2023/08/18 09:50:53;;;;;;;7.80;4.30;;;;;;;36.87;49.16;100519.59;108978;1253;58766;-66
2023/08/18 09:53:21;;;;;;;6.40;4.60;;;;;;;36.81;47.71;100520.11;109268;1252;63833;-65
2023/08/18 09:55:49;;;;;;;7.70;4.50;;;;;;;36.41;46.54;100519.90;109261;1252;58691;-68
2023/08/18 09:58:22;;;;;;;6.60;4.10;;;;;;;35.93;51.42;100516.20;109207;1253;58414;-65
2023/08/18 10:00:54;;;;;;;6.00;4.00;;;;;;;35.80;56.15;100513.64;109170;1253;65121;-62
2023/08/18 10:03:26;;;;;;;6.20;3.90;;;;;;;36.06;57.62;100513.77;109195;1255;66956;-65
2023/08/18 10:05:54;;;;;;;5.30;4.40;;;;;;;36.27;52.46;100516.95;109066;1253;63793;-64
2023/08/18 10:08:22;;;;;;;6.50;4.30;;;;;;;36.03;47.91;100512.69;109106;1253;59006;-66
2023/08/18 10:10:50;;;;;;;8.50;4.30;;;;;;;35.67;52.93;100512.09;109190;1253;58221;-65
2023/08/18 10:13:18;;;;;;;6.60;3.90;;;;;;;35.72;53.76;100509.14;109240;1253;64947;-67
2023/08/18 10:15:46;;;;;;;5.80;3.80;;;;;;;35.88;53.56;100509.64;108960;1253;58213;-67
2023/08/18 10:18:16;;;;;;;7.40;4.20;;;;;;;36.15;52.72;100515.95;109097;1253;72298;-66
2023/08/18 10:20:50;;;;;;;4.60;3.70;;;;;;;36.32;51.67;100519.23;109119;1253;58645;-70
2023/08/18 10:23:19;;;;;;;9.50;4.00;;;;;;;36.41;50.30;100518.59;109252;1252;58436;-63
2023/08/18 10:25:50;;;;;;;4.80;3.50;;;;;;;36.27;49.91;100516.77;109057;1252;75902;-63
2023/08/18 10:28:23;;;;;;;6.90;3.90;;;;;;;35.93;53.07;100516.75;109218;1254;58570;-64
2023/08/18 10:31:09;;;;;;;9.40;4.50;;;;;;;35.77;55.98;100521.90;109098;1253;64146;-67
2023/08/18 10:33:43;;;;;;;6.00;3.80;;;;;;;35.78;52.64;100507.77;109186;1253;58221;-66
2023/08/18 10:36:22;;;;;;;5.10;4.20;;;;;;;35.89;51.66;100514.46;109206;1253;58592;-65
2023/08/18 10:38:52;;;;;;;5.30;4.00;;;;;;;35.85;54.14;100510.71;109192;1253;63713;-64
2023/08/18 10:41:25;;;;;;;5.60;3.80;;;;;;;35.78;54.65;100508.83;109103;1253;58806;-66
2023/08/18 10:43:56;;;;;;;7.00;4.60;;;;;;;35.59;54.36;100507.92;109284;1252;62411;-66
2023/08/18 10:46:32;;;;;;;8.30;4.10;;;;;;;35.32;54.69;100508.33;109066;1253;58143;-68
2023/08/18 10:49:00;;;;;;;7.70;3.90;;;;;;;35.04;54.75;100505.90;109285;1252;58819;-65
2023/08/18 10:51:28;;;;;;;6.40;4.30;;;;;;;34.85;55.88;100506.85;109223;1253;65050;-68
2023/08/18 10:53:56;;;;;;;6.10;3.90;;;;;;;34.83;61.24;100500.68;109211;1253;58191;-63
2023/08/18 10:56:23;;;;;;;5.90;4.20;;;;;;;34.95;61.40;100503.67;109004;1253;62510;-65
2023/08/18 10:58:51;;;;;;;4.40;3.50;;;;;;;35.09;57.76;100496.92;109025;1253;58169;-67
2023/08/18 11:01:22;;;;;;;4.70;4.20;;;;;;;35.36;56.90;100499.07;109199;1253;58065;-67
2023/08/18 11:03:50;;;;;;;8.70;4.00;;;;;;;35.53;53.42;100502.52;109089;1252;63700;-66
2023/08/18 11:06:19;;;;;;;6.50;4.60;;;;;;;35.39;54.55;100500.45;109256;1252;66925;-64
2023/08/18 11:08:46;;;;;;;8.20;4.50;;;;;;;35.30;58.31;100503.09;109082;1253;63857;-66
2023/08/18 11:11:15;;;;;;;5.40;4.30;;;;;;;35.35;58.75;100500.81;109191;1254;58208;-63
2023/08/18 11:13:43;;;;;;;6.00;4.20;;;;;;;35.40;55.05;100500.11;109337;1252;58238;-64
2023/08/18 11:16:11;;;;;;;5.10;4.50;;;;;;;35.41;56.48;100495.80;109272;1252;65048;-66
2023/08/18 11:18:41;;;;;;;6.30;4.20;;;;;;;35.45;55.17;100492.11;109091;1252;58595;-65